createdAt,value
2019-04-29T00:00:48.446Z,1.50
2019-04-29T00:03:36.603Z,1.43
2019-04-29T00:06:24.625Z,1.57
2019-04-29T00:09:17.453Z,1.20
2019-04-29T00:12:05.993Z,1.73
2019-04-29T00:14:59.715Z,1.53
2019-04-29T00:17:59.354Z,2.37
2019-04-29T00:20:51.694Z,1.20
2019-04-29T00:23:41.024Z,1.50
2019-04-29T00:26:29.299Z,1.47
2019-04-29T00:29:17.535Z,1.33
2019-04-29T00:32:06.467Z,1.90
2019-04-29T00:34:54.730Z,2.40
2019-04-29T00:37:47.722Z,1.63
2019-04-29T00:40:37.846Z,1.50
2019-04-29T00:43:28.007Z,2.50
2019-04-29T00:46:32.424Z,2.27
2019-04-29T00:49:22.681Z,1.60
2019-04-29T00:52:11.990Z,1.70
2019-04-29T00:55:24.436Z,1.60
2019-04-29T00:58:17.153Z,1.83
2019-04-29T01:04:27.121Z,1.63
2019-04-29T01:07:18.622Z,1.47
2019-04-29T01:10:08.553Z,1.57
2019-04-29T01:12:56.904Z,2.37
2019-04-29T01:15:45.264Z,2.70
2019-04-29T01:18:35.828Z,1.47
2019-04-29T01:21:24.151Z,1.67
2019-04-29T01:24:12.166Z,2.63
2019-04-29T01:27:02.096Z,1.67
2019-04-29T01:29:50.368Z,1.83
2019-04-29T01:32:38.631Z,1.77
2019-04-29T01:35:26.784Z,2.80
2019-04-29T01:38:14.118Z,3.43
2019-04-29T01:41:03.864Z,2.20
2019-04-29T01:44:00.400Z,2.40
2019-04-29T01:46:48.734Z,2.20
2019-04-29T01:49:38.324Z,2.27
2019-04-29T01:52:26.482Z,2.23
2019-04-29T01:55:14.834Z,2.70
2019-04-29T01:58:02.975Z,1.60
2019-04-29T02:00:51.427Z,2.67
2019-04-29T02:03:40.489Z,2.37
2019-04-29T02:06:29.159Z,2.77
2019-04-29T02:09:19.803Z,1.63
2019-04-29T02:12:08.151Z,2.33
2019-04-29T02:14:57.257Z,1.93
2019-04-29T02:17:46.193Z,1.63
2019-04-29T02:20:34.316Z,2.30
2019-04-29T02:23:30.193Z,1.83
2019-04-29T02:26:19.107Z,2.07
2019-04-29T02:29:07.545Z,1.73
2019-04-29T02:31:56.856Z,2.10
2019-04-29T02:34:46.122Z,1.83
2019-04-29T02:37:36.075Z,2.10
2019-04-29T02:40:25.702Z,2.00
2019-04-29T02:43:21.521Z,2.10
2019-04-29T02:46:10.156Z,1.60
2019-04-29T02:48:58.280Z,1.77
2019-04-29T02:51:51.376Z,2.10
2019-04-29T02:54:42.917Z,1.87
2019-04-29T02:57:32.998Z,2.07
2019-04-29T03:00:37.523Z,1.90
2019-04-29T03:03:33.590Z,1.70
2019-04-29T03:06:21.698Z,2.30
2019-04-29T03:09:10.218Z,1.50
2019-04-29T03:12:01.720Z,1.80
2019-04-29T03:14:48.777Z,2.03
2019-04-29T03:17:38.022Z,1.60
2019-04-29T03:20:42.800Z,1.10
2019-04-29T03:23:31.075Z,1.73
2019-04-29T03:26:19.398Z,1.90
2019-04-29T03:29:11.247Z,1.67
2019-04-29T03:31:59.505Z,1.67
2019-04-29T03:34:47.955Z,1.57
2019-04-29T03:37:36.003Z,1.83
2019-04-29T03:40:06.925Z,1.90
2019-04-29T03:42:55.610Z,1.50
2019-04-29T03:45:44.093Z,1.67
2019-04-29T03:48:32.238Z,1.47
2019-04-29T03:51:20.252Z,1.40
2019-04-29T03:54:10.317Z,1.17
2019-04-29T03:56:58.659Z,1.20
2019-04-29T03:59:46.925Z,1.80
2019-04-29T04:02:39.489Z,1.83
2019-04-29T04:05:38.168Z,1.20
2019-04-29T04:08:27.827Z,1.37
2019-04-29T04:11:16.651Z,1.07
2019-04-29T04:14:04.838Z,1.50
2019-04-29T04:17:01.021Z,1.30
2019-04-29T04:19:49.639Z,1.55
2019-04-29T04:22:48.206Z,1.67
2019-04-29T04:25:36.678Z,1.40
2019-04-29T04:28:24.908Z,1.30
2019-04-29T04:31:13.276Z,1.10
2019-04-29T04:34:01.363Z,1.47
2019-04-29T04:36:49.689Z,1.40
2019-04-29T04:39:39.875Z,1.50
2019-04-29T04:42:30.002Z,1.60
2019-04-29T04:45:19.651Z,2.07
2019-04-29T04:48:07.485Z,1.57
2019-04-29T04:50:55.974Z,1.30
2019-04-29T04:53:44.096Z,1.57
2019-04-29T04:56:32.105Z,1.73
2019-04-29T04:59:20.931Z,1.23
2019-04-29T05:02:09.826Z,1.23
2019-04-29T05:04:58.354Z,1.57
2019-04-29T05:07:46.803Z,1.73
2019-04-29T05:10:35.303Z,1.50
2019-04-29T05:13:28.157Z,1.40
2019-04-29T05:16:13.659Z,1.97
2019-04-29T05:19:01.970Z,2.00
2019-04-29T05:21:50.346Z,1.90
2019-04-29T05:24:38.373Z,2.23
2019-04-29T05:27:26.837Z,1.80
2019-04-29T05:30:15.033Z,1.70
2019-04-29T05:33:03.349Z,1.87
2019-04-29T05:35:56.760Z,1.77
2019-04-29T05:38:49.525Z,1.70
2019-04-29T05:41:20.529Z,1.90
2019-04-29T05:44:13.132Z,1.83
2019-04-29T05:47:06.311Z,2.00
2019-04-29T05:50:16.847Z,1.83
2019-04-29T05:53:11.616Z,1.90
2019-04-29T05:55:59.778Z,1.87
2019-04-29T05:58:48.124Z,1.90
2019-04-29T06:01:36.519Z,2.10
2019-04-29T06:04:28.399Z,1.80
2019-04-29T06:07:16.838Z,1.87
2019-04-29T06:10:06.777Z,1.70
2019-04-29T06:12:55.627Z,1.80
2019-04-29T06:15:44.058Z,1.73
2019-04-29T06:18:32.351Z,1.67
2019-04-29T06:21:20.625Z,1.70
2019-04-29T06:24:09.266Z,2.10
2019-04-29T06:26:57.492Z,1.53
2019-04-29T06:29:45.997Z,2.20
2019-04-29T06:32:34.373Z,1.50
2019-04-29T06:35:22.635Z,1.87
2019-04-29T06:38:11.815Z,1.73
2019-04-29T06:41:00.086Z,2.17
2019-04-29T06:43:48.403Z,2.00
2019-04-29T06:46:36.578Z,2.03
2019-04-29T06:49:24.850Z,1.83
2019-04-29T06:52:13.366Z,2.13
2019-04-29T06:55:01.862Z,2.60
2019-04-29T06:57:50.188Z,2.53
2019-04-29T07:00:38.639Z,2.50
2019-04-29T07:03:26.984Z,2.67
2019-04-29T07:06:15.100Z,2.10
2019-04-29T07:09:03.284Z,3.23
2019-04-29T07:11:52.742Z,2.83
2019-04-29T07:14:41.391Z,2.80
2019-04-29T07:17:30.125Z,3.67
2019-04-29T07:20:18.741Z,2.87
2019-04-29T07:23:07.181Z,3.20
2019-04-29T07:25:55.296Z,3.33
2019-04-29T07:28:43.959Z,4.30
2019-04-29T07:31:35.216Z,4.63
2019-04-29T07:34:35.678Z,3.45
2019-04-29T07:37:46.995Z,4.70
2019-04-29T07:40:48.925Z,4.20
2019-04-29T07:43:46.902Z,3.97
2019-04-29T07:46:55.718Z,5.03
2019-04-29T07:49:26.295Z,4.40
2019-04-29T07:52:16.116Z,5.20
2019-04-29T07:55:09.417Z,4.90
2019-04-29T07:57:57.536Z,5.37
2019-04-29T08:00:48.755Z,4.90
2019-04-29T08:03:35.969Z,5.33
2019-04-29T08:06:08.678Z,5.57
2019-04-29T08:09:08.030Z,5.50
2019-04-29T08:12:08.871Z,6.10
2019-04-29T08:14:23.946Z,5.63
2019-04-29T08:17:12.249Z,5.90
2019-04-29T08:20:05.309Z,6.27
2019-04-29T08:22:50.976Z,5.40
2019-04-29T08:25:39.765Z,5.90
2019-04-29T08:28:29.137Z,6.47
2019-04-29T08:31:21.043Z,5.60
2019-04-29T08:34:08.841Z,6.23
2019-04-29T08:36:57.772Z,6.90
2019-04-29T08:40:00.442Z,7.30
2019-04-29T08:42:41.370Z,6.90
2019-04-29T08:45:34.731Z,6.80
2019-04-29T08:48:22.909Z,7.43
2019-04-29T08:51:11.456Z,7.77
2019-04-29T08:54:00.592Z,6.30
2019-04-29T08:57:02.242Z,7.80
2019-04-29T08:59:39.459Z,7.17
2019-04-29T09:02:35.097Z,7.07
2019-04-29T09:05:18.139Z,8.77
2019-04-29T09:08:06.791Z,7.90
2019-04-29T09:10:55.642Z,9.63
2019-04-29T09:13:43.993Z,8.43
2019-04-29T09:16:32.160Z,9.97
2019-04-29T09:19:20.408Z,9.73
2019-04-29T09:22:10.478Z,10.47
2019-04-29T09:25:12.084Z,11.40
2019-04-29T09:28:08.217Z,9.93
2019-04-29T09:30:56.617Z,11.63
2019-04-29T09:33:49.100Z,11.30
2019-04-29T09:36:38.564Z,11.17
2019-04-29T09:39:41.849Z,12.17
2019-04-29T09:42:19.555Z,11.50
2019-04-29T09:45:24.375Z,10.40
2019-04-29T09:48:10.981Z,10.07
2019-04-29T09:50:59.512Z,10.13
2019-04-29T09:53:50.182Z,11.27
2019-04-29T09:56:38.250Z,12.40
2019-04-29T09:59:30.766Z,12.57
2019-04-29T10:02:37.787Z,13.63
2019-04-29T10:05:30.403Z,13.07
2019-04-29T10:08:19.302Z,12.80
2019-04-29T10:11:09.428Z,12.40
2019-04-29T10:13:58.764Z,12.77
2019-04-29T10:16:37.442Z,11.67
2019-04-29T10:19:27.585Z,12.20
2019-04-29T10:22:16.203Z,12.70
2019-04-29T10:25:06.285Z,12.90
2019-04-29T10:27:54.619Z,13.43
2019-04-29T10:30:43.501Z,12.80
2019-04-29T10:33:31.705Z,15.17
2019-04-29T10:36:20.546Z,15.63
2019-04-29T10:39:18.551Z,14.97
2019-04-29T10:42:12.881Z,12.83
2019-04-29T10:45:14.025Z,13.30
2019-04-29T10:48:18.091Z,13.93
2019-04-29T10:51:07.939Z,11.90
2019-04-29T10:53:56.951Z,13.47
2019-04-29T10:56:47.987Z,13.20
2019-04-29T10:59:40.738Z,13.80
2019-04-29T11:02:31.522Z,13.40
2019-04-29T11:05:30.892Z,12.97
2019-04-29T11:08:21.727Z,12.60
2019-04-29T11:11:22.094Z,11.60
2019-04-29T11:14:03.213Z,10.90
2019-04-29T11:16:51.525Z,11.63
2019-04-29T11:19:41.526Z,11.43
2019-04-29T11:22:33.991Z,11.53
2019-04-29T11:25:23.007Z,13.67
2019-04-29T11:28:12.185Z,13.33
2019-04-29T11:31:01.185Z,11.23
2019-04-29T11:33:52.014Z,11.48
2019-04-29T11:36:43.951Z,11.67
2019-04-29T11:39:30.535Z,11.93
2019-04-29T11:42:19.656Z,11.90
2019-04-29T11:45:09.474Z,10.90
2019-04-29T11:47:40.150Z,11.30
2019-04-29T11:50:13.635Z,10.10
2019-04-29T11:52:44.326Z,10.63
2019-04-29T11:55:18.468Z,10.58
2019-04-29T11:57:55.036Z,10.23
2019-04-29T12:00:28.985Z,9.07
2019-04-29T12:03:02.088Z,9.30
2019-04-29T12:05:34.669Z,10.03
2019-04-29T12:08:16.001Z,10.75
2019-04-29T12:10:48.347Z,10.13
2019-04-29T12:13:18.989Z,9.57
2019-04-29T12:15:54.459Z,9.03
2019-04-29T12:18:34.051Z,9.50
2019-04-29T12:27:52.761Z,9.30
2019-04-29T12:30:40.080Z,9.00
2019-04-29T12:33:32.569Z,10.13
2019-04-29T12:36:05.199Z,8.93
2019-04-29T12:38:48.828Z,8.63
2019-04-29T12:41:29.652Z,9.47
2019-04-29T12:44:03.103Z,9.53
2019-04-29T12:46:41.283Z,9.93
2019-04-29T12:49:13.776Z,10.70
2019-04-29T12:51:44.621Z,10.28
2019-04-29T12:54:15.333Z,12.10
2019-04-29T12:56:48.040Z,12.67
2019-04-29T12:59:18.515Z,13.10
2019-04-29T13:02:08.722Z,14.80
2019-04-29T13:04:57.122Z,14.10
2019-04-29T13:07:47.089Z,12.87
2019-04-29T13:10:52.772Z,13.23
2019-04-29T13:13:41.225Z,14.30
2019-04-29T13:16:31.007Z,12.83
2019-04-29T13:19:20.873Z,13.60
2019-04-29T13:22:10.636Z,13.17
2019-04-29T13:24:59.508Z,13.03
2019-04-29T13:27:30.360Z,13.93
2019-04-29T13:30:01.222Z,12.70
2019-04-29T13:32:35.539Z,12.40
2019-04-29T13:35:10.907Z,13.67
2019-04-29T13:37:57.426Z,12.27
2019-04-29T13:40:45.575Z,11.93
2019-04-29T13:43:35.593Z,12.80
2019-04-29T13:46:25.927Z,12.33
2019-04-29T13:49:19.068Z,10.83
2019-04-29T13:52:08.441Z,10.93
2019-04-29T13:54:56.404Z,11.90
2019-04-29T13:57:49.434Z,9.83
2019-04-29T14:00:45.765Z,11.67
2019-04-29T14:03:35.529Z,12.90
2019-04-29T14:06:23.896Z,12.00
2019-04-29T14:09:12.400Z,11.20
2019-04-29T14:12:24.990Z,11.23
2019-04-29T14:14:53.945Z,11.10
2019-04-29T14:17:41.148Z,11.00
2019-04-29T14:20:29.283Z,12.30
2019-04-29T14:23:17.707Z,11.80
2019-04-29T14:26:05.966Z,10.60
2019-04-29T14:28:53.910Z,11.03
2019-04-29T14:31:42.250Z,10.70
2019-04-29T14:34:44.035Z,10.10
2019-04-29T14:37:32.405Z,10.00
2019-04-29T14:40:20.388Z,10.73
2019-04-29T14:43:31.053Z,10.23
2019-04-29T14:46:19.991Z,10.05
2019-04-29T14:49:25.006Z,9.57
2019-04-29T14:52:14.936Z,9.37
2019-04-29T14:55:03.950Z,10.47
2019-04-29T14:57:53.863Z,11.13
2019-04-29T15:00:52.985Z,10.30
2019-04-29T15:03:46.752Z,9.20
2019-04-29T15:06:32.984Z,9.13
2019-04-29T15:09:21.437Z,9.90
2019-04-29T15:12:21.772Z,9.03
2019-04-29T15:15:24.245Z,8.80
2019-04-29T15:21:06.293Z,9.60
2019-04-29T15:23:53.350Z,7.70
2019-04-29T15:26:41.453Z,8.13
2019-04-29T15:29:29.669Z,7.53
2019-04-29T15:32:22.066Z,7.87
2019-04-29T15:35:07.886Z,8.57
2019-04-29T15:37:38.638Z,8.60
2019-04-29T15:40:28.735Z,8.53
2019-04-29T15:43:24.262Z,9.03
2019-04-29T15:46:11.342Z,9.20
2019-04-29T15:48:43.729Z,25.80
2019-04-29T15:51:14.889Z,15.90
2019-04-29T15:53:48.067Z,9.83
2019-04-29T15:56:28.199Z,8.70
2019-04-29T15:58:51.969Z,9.03
2019-04-29T16:01:42.290Z,7.53
2019-04-29T16:04:47.418Z,8.70
2019-04-29T16:07:55.787Z,8.27
2019-04-29T16:10:51.618Z,8.10
2019-04-29T16:13:38.316Z,8.00
2019-04-29T16:16:28.253Z,6.50
2019-04-29T16:19:16.599Z,7.00
2019-04-29T16:22:07.422Z,7.17
2019-04-29T16:24:59.531Z,6.27
2019-04-29T16:27:51.148Z,6.53
2019-04-29T16:30:39.154Z,5.30
2019-04-29T16:33:30.285Z,4.90
2019-04-29T16:36:18.472Z,4.03
2019-04-29T16:39:11.095Z,4.67
2019-04-29T16:42:01.513Z,4.73
2019-04-29T16:44:51.464Z,4.60
2019-04-29T16:47:40.069Z,4.40
2019-04-29T16:50:30.095Z,4.60
2019-04-29T16:53:18.523Z,4.43
2019-04-29T16:56:06.825Z,5.77
2019-04-29T16:58:55.300Z,4.80
2019-04-29T17:01:43.652Z,4.60
2019-04-29T17:04:31.613Z,4.87
2019-04-29T17:07:20.145Z,5.10
2019-04-29T17:10:22.027Z,4.77
2019-04-29T17:13:16.712Z,3.97
2019-04-29T17:16:00.020Z,4.90
2019-04-29T17:18:48.258Z,4.80
2019-04-29T17:21:43.515Z,4.17
2019-04-29T17:24:35.006Z,4.23
2019-04-29T17:27:27.934Z,4.53
2019-04-29T17:30:21.046Z,4.73
2019-04-29T17:33:11.398Z,3.80
2019-04-29T17:36:01.279Z,4.50
2019-04-29T17:38:49.805Z,4.07
2019-04-29T17:41:41.039Z,4.43
2019-04-29T17:44:39.369Z,4.90
2019-04-29T17:47:33.553Z,4.60
2019-04-29T17:50:39.178Z,4.90
2019-04-29T17:53:29.733Z,5.37
2019-04-29T17:56:32.908Z,4.40
2019-04-29T17:59:30.552Z,4.43
2019-04-29T18:02:35.934Z,4.58
2019-04-29T18:05:34.502Z,4.50
2019-04-29T18:08:37.968Z,4.83
2019-04-29T18:11:26.450Z,5.87
2019-04-29T18:14:15.050Z,5.33
2019-04-29T18:17:07.602Z,5.00
2019-04-29T18:20:08.494Z,4.50
2019-04-29T18:22:54.847Z,4.60
2019-04-29T18:25:50.504Z,5.43
2019-04-29T18:28:39.058Z,4.97
2019-04-29T18:31:30.591Z,4.70
2019-04-29T18:34:17.532Z,4.60
2019-04-29T18:37:07.535Z,4.40
2019-04-29T18:39:57.682Z,4.40
2019-04-29T18:42:48.469Z,4.93
2019-04-29T18:45:36.798Z,4.57
2019-04-29T18:48:27.037Z,4.67
2019-04-29T18:51:15.686Z,4.20
2019-04-29T18:54:06.067Z,4.20
2019-04-29T18:56:55.798Z,4.93
2019-04-29T18:59:47.056Z,4.77
2019-04-29T19:02:44.997Z,4.73
2019-04-29T19:05:32.300Z,4.30
2019-04-29T19:08:22.757Z,5.12
2019-04-29T19:11:07.122Z,5.03
2019-04-29T19:13:55.502Z,4.30
2019-04-29T19:16:47.093Z,4.20
2019-04-29T19:19:39.226Z,4.40
2019-04-29T19:22:27.952Z,4.30
2019-04-29T19:25:17.803Z,4.97
2019-04-29T19:28:12.717Z,4.60
2019-04-29T19:31:02.964Z,4.90
2019-04-29T19:33:46.244Z,3.97
2019-04-29T19:36:37.508Z,4.30
2019-04-29T19:39:27.327Z,3.60
2019-04-29T19:42:28.393Z,3.77
2019-04-29T19:45:15.428Z,4.37
2019-04-29T19:48:06.246Z,4.03
2019-04-29T19:51:14.091Z,4.27
2019-04-29T19:53:49.402Z,4.80
2019-04-29T19:56:36.998Z,4.40
2019-04-29T19:59:26.541Z,4.60
2019-04-29T20:02:05.836Z,3.93
2019-04-29T20:04:52.419Z,4.50
2019-04-29T20:07:44.579Z,3.97
2019-04-29T20:10:42.488Z,3.53
2019-04-29T20:13:30.670Z,3.70
2019-04-29T20:16:40.452Z,4.20
2019-04-29T20:19:33.979Z,3.90
2019-04-29T20:22:22.470Z,4.00
2019-04-29T20:25:10.745Z,4.13
2019-04-29T20:28:05.712Z,4.03
2019-04-29T20:30:58.420Z,3.70
2019-04-29T20:33:46.289Z,4.12
2019-04-29T20:36:41.649Z,4.00
2019-04-29T20:39:29.218Z,4.90
2019-04-29T20:42:18.109Z,3.63
2019-04-29T20:45:07.901Z,3.57
2019-04-29T20:47:56.385Z,4.27
2019-04-29T20:50:52.736Z,4.33
2019-04-29T20:53:58.639Z,3.50
2019-04-29T20:56:56.367Z,3.27
2019-04-29T20:59:42.084Z,4.10
2019-04-29T21:02:34.372Z,3.67
2019-04-29T21:05:24.528Z,3.50
2019-04-29T21:08:16.201Z,3.17
2019-04-29T21:11:02.315Z,4.10
2019-04-29T21:13:56.060Z,3.50
2019-04-29T21:16:43.642Z,4.00
2019-04-29T21:19:31.634Z,4.33
2019-04-29T21:22:28.151Z,4.07
2019-04-29T21:25:11.244Z,3.47
2019-04-29T21:27:48.446Z,3.50
2019-04-29T21:30:42.271Z,4.07
2019-04-29T21:33:25.808Z,3.37
2019-04-29T21:36:15.966Z,4.03
2019-04-29T21:39:22.242Z,3.13
2019-04-29T21:42:15.787Z,4.03
2019-04-29T21:45:08.840Z,3.67
2019-04-29T21:47:55.427Z,3.40
2019-04-29T21:50:47.105Z,3.23
2019-04-29T21:53:40.403Z,3.47
2019-04-29T21:56:29.956Z,3.50
2019-04-29T21:59:18.038Z,3.92
2019-04-29T22:02:11.530Z,4.00
2019-04-29T22:04:57.901Z,3.50
2019-04-29T22:07:47.440Z,3.30
2019-04-29T22:10:36.868Z,3.50
2019-04-29T22:13:25.195Z,2.90
2019-04-29T22:16:15.781Z,3.70
2019-04-29T22:19:04.673Z,3.43
2019-04-29T22:21:57.885Z,3.50
2019-04-29T22:24:45.821Z,3.10
2019-04-29T22:27:39.195Z,4.10
2019-04-29T22:30:24.265Z,2.63
2019-04-29T22:33:12.315Z,3.27
2019-04-29T22:36:00.695Z,3.63
2019-04-29T22:38:51.952Z,3.70
2019-04-29T22:41:56.458Z,3.67
2019-04-29T22:44:45.738Z,4.00
2019-04-29T22:47:34.317Z,4.13
2019-04-29T22:50:22.628Z,3.47
2019-04-29T22:53:10.657Z,3.57
2019-04-29T22:55:59.201Z,3.50
2019-04-29T22:58:47.629Z,3.63
2019-04-29T23:01:38.118Z,3.80
2019-04-29T23:04:25.912Z,3.33
2019-04-29T23:07:17.719Z,3.03
2019-04-29T23:10:05.720Z,3.50
2019-04-29T23:12:57.453Z,3.40
2019-04-29T23:15:45.521Z,3.47
2019-04-29T23:18:42.255Z,3.43
2019-04-29T23:21:25.625Z,3.60
2019-04-29T23:24:33.493Z,3.83
2019-04-29T23:27:21.600Z,3.43
2019-04-29T23:30:17.598Z,3.40
2019-04-29T23:33:03.595Z,3.77
2019-04-29T23:35:51.674Z,3.30
2019-04-29T23:38:42.780Z,3.30
2019-04-29T23:41:33.098Z,3.20
2019-04-29T23:44:19.403Z,3.00
2019-04-29T23:47:10.294Z,3.10
2019-04-29T23:49:57.452Z,2.83
2019-04-29T23:52:50.273Z,3.47
2019-04-29T23:55:35.708Z,3.40
2019-04-29T23:58:32.622Z,3.00
